Time;durP1;ratioP1;P1;durP2;ratioP2;P2;SDS_P1;SDS_P2;PMS_P1;PMS_P2;Temp;Humidity;BMP_temperature;BMP_pressure;BME280_temperature;BME280_humidity;BME280_pressure;Samples;Min_cycle;Max_cycle;Signal;HPM_P1;HPM_P2
2023/03/12 00:01:15;;;;;;;;;;;20.20;44.40;;;;;;1558861;76;802;-70
2023/03/12 00:03:17;;;;;;;;;;;20.20;44.50;;;;;;1558523;75;1789;-69
2023/03/12 00:05:21;;;;;;;;;;;20.20;44.50;;;;;;1565482;75;1127;-74
2023/03/12 00:07:23;;;;;;;;;;;20.20;44.50;;;;;;1561026;76;669;-69
2023/03/12 00:09:25;;;;;;;;;;;20.20;44.40;;;;;;1567826;75;772;-69
2023/03/12 00:11:27;;;;;;;;;;;20.20;44.50;;;;;;1562159;75;1355;-70
2023/03/12 00:13:28;;;;;;;;;;;20.20;44.50;;;;;;1563958;75;959;-69
2023/03/12 00:15:30;;;;;;;;;;;20.20;44.50;;;;;;1561098;75;1942;-70
2023/03/12 00:17:32;;;;;;;;;;;20.20;44.50;;;;;;1562359;76;746;-69
2023/03/12 00:19:34;;;;;;;;;;;20.10;44.50;;;;;;1566876;75;689;-71
2023/03/12 00:21:36;;;;;;;;;;;20.10;44.60;;;;;;1558444;76;635;-70
2023/03/12 00:23:38;;;;;;;;;;;20.10;44.60;;;;;;1560075;75;1136;-72
2023/03/12 00:25:40;;;;;;;;;;;20.10;44.50;;;;;;1559926;75;1547;-70
2023/03/12 00:27:42;;;;;;;;;;;20.10;44.60;;;;;;1561595;75;763;-69
2023/03/12 00:29:43;;;;;;;;;;;20.10;44.50;;;;;;1561861;76;744;-68
2023/03/12 00:31:46;;;;;;;;;;;20.10;44.60;;;;;;1562197;76;694;-70
2023/03/12 00:33:49;;;;;;;;;;;20.20;44.70;;;;;;1560992;75;1147;-69
2023/03/12 00:35:51;;;;;;;;;;;20.10;44.70;;;;;;1561107;76;1911;-70
2023/03/12 00:37:53;;;;;;;;;;;20.10;44.70;;;;;;1561585;76;836;-70
2023/03/12 00:39:55;;;;;;;;;;;20.00;44.50;;;;;;1561250;76;1655;-67
2023/03/12 00:41:57;;;;;;;;;;;20.00;44.50;;;;;;1554357;76;792;-69
2023/03/12 00:43:58;;;;;;;;;;;20.10;44.70;;;;;;1560618;75;1179;-69
2023/03/12 00:46:00;;;;;;;;;;;20.10;44.70;;;;;;1561486;76;763;-66
2023/03/12 00:48:02;;;;;;;;;;;20.10;44.70;;;;;;1561293;76;607;-70
2023/03/12 00:50:04;;;;;;;;;;;20.10;44.70;;;;;;1550934;75;650;-71
2023/03/12 00:52:06;;;;;;;;;;;20.10;44.70;;;;;;1560433;76;836;-70
2023/03/12 00:54:08;;;;;;;;;;;20.10;44.70;;;;;;1564951;75;1584;-67
2023/03/12 00:56:10;;;;;;;;;;;20.10;44.70;;;;;;1560805;76;1936;-68
2023/03/12 00:58:12;;;;;;;;;;;20.10;44.80;;;;;;1562058;76;739;-70
2023/03/12 01:00:14;;;;;;;;;;;20.10;44.70;;;;;;1561712;76;760;-70
2023/03/12 01:02:16;;;;;;;;;;;20.10;44.70;;;;;;1560740;76;710;-69
2023/03/12 01:04:17;;;;;;;;;;;20.10;44.80;;;;;;1567868;75;1126;-69
2023/03/12 01:06:19;;;;;;;;;;;20.10;44.70;;;;;;1561671;76;926;-71
2023/03/12 01:08:21;;;;;;;;;;;20.00;44.60;;;;;;1553983;75;1583;-72
2023/03/12 01:10:23;;;;;;;;;;;20.10;44.70;;;;;;1552846;75;658;-72
2023/03/12 01:12:25;;;;;;;;;;;20.10;44.70;;;;;;1561806;76;800;-68
2023/03/12 01:14:27;;;;;;;;;;;20.10;44.70;;;;;;1563696;75;1128;-71
2023/03/12 01:16:29;;;;;;;;;;;20.10;44.70;;;;;;1562021;76;1924;-69
2023/03/12 01:18:31;;;;;;;;;;;20.10;44.70;;;;;;1564464;75;743;-68
2023/03/12 01:20:33;;;;;;;;;;;20.10;44.70;;;;;;1561392;76;704;-69
2023/03/12 01:22:35;;;;;;;;;;;20.10;44.70;;;;;;1561333;75;1474;-71
2023/03/12 01:24:37;;;;;;;;;;;20.10;44.80;;;;;;1561017;75;1141;-70
2023/03/12 01:26:38;;;;;;;;;;;20.10;44.80;;;;;;1557923;76;743;-69
2023/03/12 01:28:40;;;;;;;;;;;20.10;44.70;;;;;;1561127;76;807;-67
2023/03/12 01:30:42;;;;;;;;;;;20.10;44.70;;;;;;1561845;76;727;-69
2023/03/12 01:32:44;;;;;;;;;;;20.10;44.70;;;;;;1561705;76;766;-69
2023/03/12 01:34:46;;;;;;;;;;;20.10;44.70;;;;;;1571002;73;1107;-69
2023/03/12 01:36:48;;;;;;;;;;;20.20;44.70;;;;;;1561879;76;1940;-69
2023/03/12 01:41:17;;;;;;;;;;;20.10;44.80;;;;;;1547258;77;1557;-62
2023/03/12 01:43:23;;;;;;;;;;;20.10;44.80;;;;;;1535080;75;751;-61
2023/03/12 01:45:43;;;;;;;;;;;20.10;44.80;;;;;;1537784;77;880;-58
2023/03/12 01:47:45;;;;;;;;;;;20.10;44.90;;;;;;1532971;77;738;-61
2023/03/12 01:49:48;;;;;;;;;;;20.10;44.80;;;;;;1531248;77;1553;-58
2023/03/12 01:51:51;;;;;;;;;;;20.10;44.70;;;;;;1535563;77;1160;-58
2023/03/12 01:53:53;;;;;;;;;;;20.00;44.60;;;;;;1524711;77;1312;-58
2023/03/12 01:55:55;;;;;;;;;;;20.10;44.80;;;;;;1534061;77;1939;-58
2023/03/12 01:57:57;;;;;;;;;;;20.00;44.70;;;;;;1542719;77;771;-57
2023/03/12 02:00:00;;;;;;;;;;;20.10;44.80;;;;;;1535788;77;773;-60
2023/03/12 02:02:02;;;;;;;;;;;20.10;44.80;;;;;;1534678;77;1157;-57
2023/03/12 02:04:04;;;;;;;;;;;20.10;44.80;;;;;;1532613;77;1268;-59
2023/03/12 02:06:06;;;;;;;;;;;20.00;44.70;;;;;;1515261;78;644;-58
2023/03/12 02:08:11;;;;;;;;;;;20.10;44.70;;;;;;1517916;77;701;-60
2023/03/12 02:10:13;;;;;;;;;;;20.10;44.70;;;;;;1515359;77;779;-59
2023/03/12 02:12:15;;;;;;;;;;;20.10;44.80;;;;;;1517577;77;1140;-59
2023/03/12 02:14:17;;;;;;;;;;;20.00;44.60;;;;;;1523981;77;709;-59
2023/03/12 02:16:19;;;;;;;;;;;20.10;44.80;;;;;;1529260;77;1926;-59
2023/03/12 02:18:21;;;;;;;;;;;20.20;44.80;;;;;;1523662;77;1525;-60
2023/03/12 02:20:43;;;;;;;;;;;20.10;44.80;;;;;;1522105;77;626;-59
2023/03/12 02:22:49;;;;;;;;;;;20.00;44.70;;;;;;1515513;77;1130;-57
2023/03/12 02:25:05;;;;;;;;;;;20.10;44.80;;;;;;1512373;77;1831;-58
2023/03/12 02:27:07;;;;;;;;;;;20.00;44.70;;;;;;1518477;77;1764;-60
2023/03/12 02:29:09;;;;;;;;;;;20.00;44.70;;;;;;1529641;77;669;-59
2023/03/12 02:31:12;;;;;;;;;;;20.00;44.70;;;;;;1528888;77;1131;-61
2023/03/12 02:33:14;;;;;;;;;;;20.00;44.70;;;;;;1523563;77;1433;-60
2023/03/12 02:35:16;;;;;;;;;;;20.00;44.70;;;;;;1516465;77;747;-58
2023/03/12 02:37:18;;;;;;;;;;;20.10;44.90;;;;;;1516812;77;1983;-58
2023/03/12 02:39:21;;;;;;;;;;;20.10;44.80;;;;;;1518628;77;670;-59
2023/03/12 02:41:24;;;;;;;;;;;20.00;44.70;;;;;;1524236;77;1179;-59
2023/03/12 02:43:26;;;;;;;;;;;20.10;44.90;;;;;;1515656;77;694;-59
2023/03/12 02:45:28;;;;;;;;;;;20.00;44.70;;;;;;1526512;77;1549;-59
2023/03/12 02:47:30;;;;;;;;;;;20.00;44.70;;;;;;1516258;77;677;-58
2023/03/12 02:49:33;;;;;;;;;;;20.00;44.70;;;;;;1529174;77;605;-60
2023/03/12 02:51:35;;;;;;;;;;;20.10;44.90;;;;;;1527422;77;1305;-58
2023/03/12 02:53:37;;;;;;;;;;;20.00;44.70;;;;;;1521577;77;736;-57
2023/03/12 02:55:39;;;;;;;;;;;20.00;44.80;;;;;;1520136;77;787;-59
2023/03/12 02:57:42;;;;;;;;;;;20.00;44.70;;;;;;1508028;77;1952;-59
2023/03/12 02:59:44;;;;;;;;;;;20.00;44.70;;;;;;1528519;77;1525;-59
2023/03/12 03:01:46;;;;;;;;;;;20.10;44.80;;;;;;1524313;77;1123;-59
2023/03/12 03:03:48;;;;;;;;;;;20.00;44.70;;;;;;1516980;78;950;-57
2023/03/12 03:05:50;;;;;;;;;;;20.00;44.70;;;;;;1505147;78;753;-59
2023/03/12 03:07:52;;;;;;;;;;;20.10;44.90;;;;;;1529544;77;739;-58
2023/03/12 03:09:54;;;;;;;;;;;20.00;44.80;;;;;;1514012;77;741;-61
2023/03/12 03:11:56;;;;;;;;;;;20.00;44.70;;;;;;1514157;77;1116;-61
2023/03/12 03:13:58;;;;;;;;;;;20.00;44.80;;;;;;1524333;77;1511;-59
2023/03/12 03:16:00;;;;;;;;;;;20.10;44.90;;;;;;1512805;77;1939;-59
2023/03/12 03:18:02;;;;;;;;;;;20.00;44.70;;;;;;1515021;77;787;-58
2023/03/12 03:20:12;;;;;;;;;;;20.10;45.00;;;;;;1519738;77;783;-60
2023/03/12 03:22:11;;;;;;;;;;;20.00;44.80;;;;;;1513328;77;1533;-59
2023/03/12 03:24:13;;;;;;;;;;;20.00;44.80;;;;;;1515864;77;779;-59
2023/03/12 03:26:14;;;;;;;;;;;20.00;44.80;;;;;;1526772;77;711;-60
2023/03/12 03:28:16;;;;;;;;;;;20.00;44.80;;;;;;1524693;77;1540;-59
2023/03/12 03:30:20;;;;;;;;;;;20.00;44.80;;;;;;1523375;77;811;-58
2023/03/12 03:32:22;;;;;;;;;;;20.00;44.80;;;;;;1529781;77;1146;-57
2023/03/12 03:34:24;;;;;;;;;;;19.90;44.80;;;;;;1523631;77;781;-59
2023/03/12 03:36:25;;;;;;;;;;;20.00;44.80;;;;;;1530501;77;1916;-59
2023/03/12 03:38:28;;;;;;;;;;;20.10;44.90;;;;;;1529129;77;767;-60
2023/03/12 03:40:30;;;;;;;;;;;20.00;44.80;;;;;;1517180;77;705;-60
2023/03/12 03:42:31;;;;;;;;;;;20.00;44.80;;;;;;1513213;77;1555;-58
2023/03/12 03:44:33;;;;;;;;;;;20.10;45.00;;;;;;1525711;76;692;-58
2023/03/12 03:46:35;;;;;;;;;;;20.00;44.80;;;;;;1525576;77;707;-61
2023/03/12 03:48:37;;;;;;;;;;;20.00;44.70;;;;;;1529630;77;729;-59
2023/03/12 03:50:39;;;;;;;;;;;20.10;45.00;;;;;;1525025;77;788;-59
2023/03/12 03:52:41;;;;;;;;;;;20.00;44.80;;;;;;1525887;77;1164;-59
2023/03/12 03:54:43;;;;;;;;;;;20.00;44.90;;;;;;1517757;77;691;-59
2023/03/12 03:56:45;;;;;;;;;;;20.00;44.80;;;;;;1521295;77;1959;-59
2023/03/12 03:58:47;;;;;;;;;;;20.00;44.80;;;;;;1515494;77;710;-58
2023/03/12 04:00:48;;;;;;;;;;;20.00;44.80;;;;;;1520866;77;645;-59
2023/03/12 04:02:50;;;;;;;;;;;20.00;44.80;;;;;;1520458;77;1079;-61
2023/03/12 04:04:52;;;;;;;;;;;20.00;44.80;;;;;;1514500;77;798;-61
2023/03/12 04:06:54;;;;;;;;;;;20.00;44.80;;;;;;1511486;77;795;-58
2023/03/12 04:08:56;;;;;;;;;;;19.90;44.80;;;;;;1517668;77;675;-59
2023/03/12 04:10:58;;;;;;;;;;;20.00;44.80;;;;;;1519725;77;1317;-59
2023/03/12 04:13:00;;;;;;;;;;;20.00;44.80;;;;;;1511336;77;1102;-58
2023/03/12 04:15:02;;;;;;;;;;;20.00;44.80;;;;;;1519056;77;755;-60
2023/03/12 04:17:04;;;;;;;;;;;20.00;44.80;;;;;;1529324;77;1921;-59
2023/03/12 04:19:06;;;;;;;;;;;20.00;44.70;;;;;;1509416;77;764;-58
2023/03/12 04:21:08;;;;;;;;;;;20.00;44.80;;;;;;1516136;77;687;-60
2023/03/12 04:23:10;;;;;;;;;;;20.00;44.80;;;;;;1512681;77;1143;-58
2023/03/12 04:25:13;;;;;;;;;;;19.90;44.90;;;;;;1521853;77;1362;-58
2023/03/12 04:27:15;;;;;;;;;;;20.00;44.80;;;;;;1514484;77;765;-59
2023/03/12 04:29:17;;;;;;;;;;;19.90;44.90;;;;;;1529304;77;665;-60
2023/03/12 04:31:19;;;;;;;;;;;19.90;44.90;;;;;;1529230;77;1166;-59
2023/03/12 04:33:21;;;;;;;;;;;19.90;44.80;;;;;;1513835;77;769;-60
2023/03/12 04:35:23;;;;;;;;;;;19.90;44.80;;;;;;1515880;77;790;-60
2023/03/12 04:37:25;;;;;;;;;;;20.00;44.80;;;;;;1512518;77;1927;-59
2023/03/12 04:39:27;;;;;;;;;;;20.00;44.90;;;;;;1518481;77;1660;-58
2023/03/12 04:41:29;;;;;;;;;;;19.90;44.90;;;;;;1528023;77;1145;-57
2023/03/12 04:43:31;;;;;;;;;;;20.00;44.90;;;;;;1515103;77;712;-59
2023/03/12 04:45:33;;;;;;;;;;;20.00;44.90;;;;;;1528868;77;659;-59
2023/03/12 04:47:35;;;;;;;;;;;20.00;44.90;;;;;;1529322;77;710;-60
2023/03/12 04:49:38;;;;;;;;;;;20.00;44.90;;;;;;1518099;77;610;-60
2023/03/12 04:51:40;;;;;;;;;;;20.00;44.80;;;;;;1523254;77;1192;-58
2023/03/12 04:53:42;;;;;;;;;;;20.00;44.90;;;;;;1520475;77;1524;-58
2023/03/12 04:55:44;;;;;;;;;;;19.90;45.00;;;;;;1528602;77;695;-59
2023/03/12 04:57:45;;;;;;;;;;;19.90;44.90;;;;;;1512347;77;1934;-58
2023/03/12 04:59:47;;;;;;;;;;;20.00;45.00;;;;;;1518327;77;753;-59
2023/03/12 05:01:50;;;;;;;;;;;19.90;44.90;;;;;;1519034;77;1121;-58
2023/03/12 05:03:52;;;;;;;;;;;20.00;44.90;;;;;;1514338;77;682;-58
2023/03/12 05:05:54;;;;;;;;;;;20.00;44.90;;;;;;1529937;77;785;-59
2023/03/12 05:07:56;;;;;;;;;;;19.90;44.90;;;;;;1516991;77;1442;-58
2023/03/12 05:09:58;;;;;;;;;;;20.00;44.80;;;;;;1515844;77;677;-60
2023/03/12 05:12:00;;;;;;;;;;;19.90;44.90;;;;;;1510578;77;1137;-59
2023/03/12 05:14:02;;;;;;;;;;;20.00;44.90;;;;;;1514199;77;862;-58
2023/03/12 05:16:04;;;;;;;;;;;19.90;44.90;;;;;;1521643;77;724;-60
2023/03/12 05:18:06;;;;;;;;;;;19.90;44.90;;;;;;1519312;77;1931;-57
2023/03/12 05:20:08;;;;;;;;;;;20.00;44.90;;;;;;1525291;77;1300;-60
2023/03/12 05:22:10;;;;;;;;;;;19.90;44.90;;;;;;1525749;77;1079;-58
2023/03/12 05:24:12;;;;;;;;;;;19.90;45.00;;;;;;1523111;77;708;-59
2023/03/12 05:26:20;;;;;;;;;;;19.90;45.10;;;;;;1514750;77;703;-59
2023/03/12 05:28:26;;;;;;;;;;;19.90;45.20;;;;;;1516810;77;631;-57
2023/03/12 05:30:26;;;;;;;;;;;19.90;45.20;;;;;;1521904;77;936;-60
2023/03/12 05:32:28;;;;;;;;;;;19.90;45.20;;;;;;1522462;77;1128;-60
2023/03/12 05:34:30;;;;;;;;;;;19.80;45.30;;;;;;1514280;77;1558;-58
2023/03/12 05:36:31;;;;;;;;;;;19.90;45.40;;;;;;1528396;77;721;-62
2023/03/12 05:38:33;;;;;;;;;;;19.80;45.30;;;;;;1525693;77;1932;-59
2023/03/12 05:40:35;;;;;;;;;;;19.90;45.30;;;;;;1521172;77;711;-59
2023/03/12 05:42:37;;;;;;;;;;;19.90;45.30;;;;;;1522812;77;1132;-59
2023/03/12 05:44:39;;;;;;;;;;;19.90;45.30;;;;;;1528007;77;719;-59
2023/03/12 05:46:42;;;;;;;;;;;19.90;45.30;;;;;;1540796;77;746;-58
2023/03/12 05:48:43;;;;;;;;;;;19.90;45.30;;;;;;1547477;77;1509;-60
2023/03/12 05:50:45;;;;;;;;;;;19.90;45.20;;;;;;1538271;77;721;-59
2023/03/12 05:52:47;;;;;;;;;;;19.90;45.20;;;;;;1540886;77;1169;-58
2023/03/12 05:54:49;;;;;;;;;;;19.90;45.20;;;;;;1535571;77;704;-59
2023/03/12 05:56:51;;;;;;;;;;;19.90;45.20;;;;;;1506559;78;1182;-59
2023/03/12 05:58:53;;;;;;;;;;;19.90;45.20;;;;;;1546801;77;1927;-61
2023/03/12 06:00:55;;;;;;;;;;;19.90;45.20;;;;;;1539631;77;762;-59
2023/03/12 06:02:56;;;;;;;;;;;19.90;45.10;;;;;;1541686;77;1309;-59
2023/03/12 06:04:58;;;;;;;;;;;19.90;45.10;;;;;;1542981;77;793;-59
2023/03/12 06:07:00;;;;;;;;;;;20.00;45.00;;;;;;1542162;77;539;-59
2023/03/12 06:09:03;;;;;;;;;;;20.00;45.10;;;;;;1531941;77;813;-59
2023/03/12 06:11:04;;;;;;;;;;;19.90;45.00;;;;;;1528744;77;756;-61
2023/03/12 06:13:07;;;;;;;;;;;20.00;45.00;;;;;;1533126;77;1107;-60
2023/03/12 06:15:10;;;;;;;;;;;20.00;45.00;;;;;;1541661;77;749;-60
2023/03/12 06:17:11;;;;;;;;;;;20.00;45.00;;;;;;1532686;77;1942;-59
2023/03/12 06:19:13;;;;;;;;;;;20.00;45.00;;;;;;1545780;77;716;-62
2023/03/12 06:21:16;;;;;;;;;;;19.90;45.00;;;;;;1546626;77;1138;-59
2023/03/12 06:23:18;;;;;;;;;;;20.00;44.90;;;;;;1545986;77;704;-59
2023/03/12 06:25:20;;;;;;;;;;;20.00;44.90;;;;;;1546758;77;776;-60
2023/03/12 06:27:22;;;;;;;;;;;20.00;44.90;;;;;;1538020;77;721;-60
2023/03/12 06:29:24;;;;;;;;;;;20.10;45.00;;;;;;1536888;77;675;-59
2023/03/12 06:31:26;;;;;;;;;;;20.00;44.90;;;;;;1539835;77;1309;-59
2023/03/12 06:33:28;;;;;;;;;;;20.00;44.90;;;;;;1529235;77;614;-59
2023/03/12 06:35:29;;;;;;;;;;;20.00;45.00;;;;;;1539551;77;666;-60
2023/03/12 06:37:31;;;;;;;;;;;20.00;44.90;;;;;;1542328;77;1945;-59
2023/03/12 06:39:33;;;;;;;;;;;19.90;44.90;;;;;;1540862;77;786;-61
2023/03/12 06:41:35;;;;;;;;;;;20.00;44.90;;;;;;1547349;77;1115;-59
2023/03/12 06:43:37;;;;;;;;;;;20.00;44.90;;;;;;1543174;77;794;-59
2023/03/12 06:45:39;;;;;;;;;;;20.00;44.90;;;;;;1544992;77;1421;-61
2023/03/12 06:47:41;;;;;;;;;;;20.00;44.90;;;;;;1534557;77;719;-59
2023/03/12 06:49:43;;;;;;;;;;;20.00;44.90;;;;;;1544896;77;779;-59
2023/03/12 06:51:45;;;;;;;;;;;19.90;45.00;;;;;;1546495;77;1181;-60
2023/03/12 06:53:47;;;;;;;;;;;20.00;44.90;;;;;;1542890;77;664;-62
2023/03/12 06:55:49;;;;;;;;;;;19.90;45.00;;;;;;1546655;77;719;-62
2023/03/12 06:57:51;;;;;;;;;;;20.00;45.00;;;;;;1535783;77;1931;-62
2023/03/12 06:59:53;;;;;;;;;;;20.00;45.00;;;;;;1543052;77;1285;-59
2023/03/12 07:01:55;;;;;;;;;;;19.90;45.00;;;;;;1533354;77;1196;-59
2023/03/12 07:03:57;;;;;;;;;;;19.90;45.00;;;;;;1523328;77;930;-60
2023/03/12 07:05:59;;;;;;;;;;;20.00;45.00;;;;;;1541145;77;779;-60
2023/03/12 07:08:01;;;;;;;;;;;19.90;44.90;;;;;;1532036;77;573;-59
2023/03/12 07:10:04;;;;;;;;;;;20.00;45.00;;;;;;1533815;77;747;-59
2023/03/12 07:12:06;;;;;;;;;;;20.00;45.00;;;;;;1531551;77;1158;-59
2023/03/12 07:14:08;;;;;;;;;;;19.90;45.00;;;;;;1541312;77;1525;-60
2023/03/12 07:16:10;;;;;;;;;;;20.00;45.00;;;;;;1540232;77;624;-61
2023/03/12 07:18:12;;;;;;;;;;;20.00;45.00;;;;;;1531212;77;1938;-59
2023/03/12 07:20:14;;;;;;;;;;;19.90;45.00;;;;;;1535413;77;712;-61
2023/03/12 07:22:16;;;;;;;;;;;20.00;45.00;;;;;;1538715;77;1137;-60
2023/03/12 07:24:18;;;;;;;;;;;19.90;45.00;;;;;;1536616;77;798;-61
2023/03/12 07:26:20;;;;;;;;;;;20.00;44.90;;;;;;1537725;77;802;-60
2023/03/12 07:28:22;;;;;;;;;;;19.90;45.00;;;;;;1529166;77;1661;-60
2023/03/12 07:30:23;;;;;;;;;;;19.90;44.90;;;;;;1542812;77;716;-60
2023/03/12 07:32:25;;;;;;;;;;;19.90;45.00;;;;;;1541169;77;1134;-60
2023/03/12 07:34:27;;;;;;;;;;;20.00;45.00;;;;;;1533822;77;769;-62
2023/03/12 07:36:29;;;;;;;;;;;19.90;45.00;;;;;;1543976;77;769;-59
2023/03/12 07:38:31;;;;;;;;;;;20.00;44.90;;;;;;1528532;77;1946;-59
2023/03/12 07:40:33;;;;;;;;;;;19.90;45.00;;;;;;1545477;77;620;-62
2023/03/12 07:42:35;;;;;;;;;;;20.00;45.00;;;;;;1531692;77;1412;-59
2023/03/12 07:44:36;;;;;;;;;;;19.90;45.00;;;;;;1536373;77;745;-59
2023/03/12 07:46:38;;;;;;;;;;;19.90;44.90;;;;;;1540246;77;839;-60
2023/03/12 07:48:40;;;;;;;;;;;20.00;45.00;;;;;;1544139;77;710;-59
2023/03/12 07:50:42;;;;;;;;;;;19.90;45.00;;;;;;1545265;77;668;-60
2023/03/12 07:52:44;;;;;;;;;;;19.90;44.90;;;;;;1540967;77;1161;-59
2023/03/12 07:54:46;;;;;;;;;;;20.00;45.00;;;;;;1533403;77;731;-59
2023/03/12 07:56:48;;;;;;;;;;;20.00;45.00;;;;;;1521820;77;579;-59
2023/03/12 07:58:50;;;;;;;;;;;19.90;45.00;;;;;;1534682;77;1956;-60
2023/03/12 08:00:53;;;;;;;;;;;19.90;45.00;;;;;;1545722;77;674;-61
2023/03/12 08:02:55;;;;;;;;;;;19.80;45.00;;;;;;1544397;77;1121;-61
2023/03/12 08:04:57;;;;;;;;;;;19.90;45.00;;;;;;1545781;77;689;-59
2023/03/12 08:06:59;;;;;;;;;;;19.90;45.00;;;;;;1538694;77;705;-59
2023/03/12 08:09:01;;;;;;;;;;;20.00;45.00;;;;;;1543861;77;1503;-60
2023/03/12 08:11:03;;;;;;;;;;;19.90;45.00;;;;;;1534439;77;760;-59
2023/03/12 08:13:05;;;;;;;;;;;19.90;45.00;;;;;;1531315;77;1060;-61
2023/03/12 08:15:11;;;;;;;;;;;19.90;45.00;;;;;;1537015;77;708;-59
2023/03/12 08:17:13;;;;;;;;;;;19.90;45.00;;;;;;1536117;77;699;-61
2023/03/12 08:19:15;;;;;;;;;;;19.90;45.00;;;;;;1540860;77;1943;-60
2023/03/12 08:21:17;;;;;;;;;;;19.90;45.00;;;;;;1540744;77;1142;-60
2023/03/12 08:23:19;;;;;;;;;;;20.00;45.00;;;;;;1536913;77;1525;-60
2023/03/12 08:25:23;;;;;;;;;;;19.90;45.00;;;;;;1539049;77;674;-60
2023/03/12 08:27:24;;;;;;;;;;;20.00;45.00;;;;;;1538588;77;1638;-61
2023/03/12 08:29:26;;;;;;;;;;;20.00;45.10;;;;;;1541903;77;741;-61
2023/03/12 08:31:28;;;;;;;;;;;19.90;45.00;;;;;;1535403;77;1115;-60
2023/03/12 08:33:30;;;;;;;;;;;19.90;45.00;;;;;;1545722;77;761;-58
2023/03/12 08:35:32;;;;;;;;;;;19.90;45.00;;;;;;1542621;77;798;-60
2023/03/12 08:37:34;;;;;;;;;;;19.90;45.00;;;;;;1530938;77;1518;-60
2023/03/12 08:39:36;;;;;;;;;;;20.00;45.00;;;;;;1531559;77;1927;-59
2023/03/12 08:41:37;;;;;;;;;;;20.00;45.00;;;;;;1533206;77;1137;-59
2023/03/12 08:43:39;;;;;;;;;;;19.90;45.00;;;;;;1547239;77;839;-60
2023/03/12 08:45:41;;;;;;;;;;;19.90;45.00;;;;;;1546378;77;728;-61
2023/03/12 08:47:43;;;;;;;;;;;19.90;45.00;;;;;;1536291;77;829;-59
2023/03/12 08:49:45;;;;;;;;;;;19.90;45.00;;;;;;1542562;77;743;-60
2023/03/12 08:51:47;;;;;;;;;;;20.00;45.00;;;;;;1543168;77;1506;-59
2023/03/12 08:53:49;;;;;;;;;;;19.90;45.00;;;;;;1532286;77;794;-60
2023/03/12 08:55:54;;;;;;;;;;;20.00;45.00;;;;;;1527324;77;741;-59
2023/03/12 08:57:55;;;;;;;;;;;20.00;45.00;;;;;;1536383;77;764;-60
2023/03/12 08:59:57;;;;;;;;;;;20.00;45.00;;;;;;1541346;77;1960;-61
2023/03/12 09:02:00;;;;;;;;;;;19.90;45.00;;;;;;1542339;77;1143;-59
2023/03/12 09:04:02;;;;;;;;;;;19.90;45.00;;;;;;1538134;77;801;-59
2023/03/12 09:06:05;;;;;;;;;;;19.90;45.00;;;;;;1544637;77;1310;-61
2023/03/12 09:08:07;;;;;;;;;;;19.90;45.00;;;;;;1538911;77;841;-61
2023/03/12 09:10:09;;;;;;;;;;;20.00;45.10;;;;;;1537821;77;804;-59
2023/03/12 09:12:11;;;;;;;;;;;20.00;45.00;;;;;;1546547;77;1068;-59
2023/03/12 09:14:13;;;;;;;;;;;19.90;45.00;;;;;;1535769;77;744;-59
2023/03/12 09:16:15;;;;;;;;;;;19.90;45.10;;;;;;1531087;77;623;-60
2023/03/12 09:18:19;;;;;;;;;;;19.90;45.00;;;;;;1535558;77;1933;-59
2023/03/12 09:20:20;;;;;;;;;;;19.90;45.00;;;;;;1526408;77;2007;-62
2023/03/12 09:22:22;;;;;;;;;;;20.00;45.10;;;;;;1538525;77;1105;-59
2023/03/12 09:24:24;;;;;;;;;;;19.90;45.10;;;;;;1543166;77;767;-60
2023/03/12 09:26:26;;;;;;;;;;;19.90;45.00;;;;;;1535600;77;746;-61
2023/03/12 09:28:28;;;;;;;;;;;20.00;45.10;;;;;;1536035;77;745;-59
2023/03/12 09:30:30;;;;;;;;;;;19.90;45.00;;;;;;1530500;77;715;-59
2023/03/12 09:32:32;;;;;;;;;;;19.90;45.20;;;;;;1531499;77;1143;-60
2023/03/12 09:34:34;;;;;;;;;;;19.90;45.10;;;;;;1539895;77;1508;-59
2023/03/12 09:36:36;;;;;;;;;;;19.90;45.10;;;;;;1541679;77;792;-59
2023/03/12 09:38:38;;;;;;;;;;;19.90;45.10;;;;;;1546705;77;1916;-60
2023/03/12 09:40:41;;;;;;;;;;;19.90;45.10;;;;;;1545803;77;781;-59
2023/03/12 09:42:50;;;;;;;;;;;19.90;45.10;;;;;;1543432;76;1408;-60
2023/03/12 09:44:52;;;;;;;;;;;20.00;45.10;;;;;;1540635;77;801;-60
2023/03/12 09:46:54;;;;;;;;;;;19.90;45.10;;;;;;1544940;77;802;-60
2023/03/12 09:48:56;;;;;;;;;;;19.90;45.10;;;;;;1539749;77;1550;-59
2023/03/12 09:50:58;;;;;;;;;;;19.90;45.10;;;;;;1545183;77;880;-60
2023/03/12 09:53:04;;;;;;;;;;;19.90;45.10;;;;;;1536421;77;1151;-59
2023/03/12 09:55:16;;;;;;;;;;;19.90;45.10;;;;;;1523138;77;697;-59
2023/03/12 09:57:20;;;;;;;;;;;20.00;45.20;;;;;;1528775;77;716;-60
2023/03/12 09:59:21;;;;;;;;;;;19.90;45.20;;;;;;1536745;77;1991;-59
2023/03/12 10:01:37;;;;;;;;;;;19.90;45.10;;;;;;1542175;77;1304;-60
2023/03/12 10:03:46;;;;;;;;;;;19.90;45.20;;;;;;1535849;77;738;-62
2023/03/12 10:05:52;;;;;;;;;;;19.90;45.10;;;;;;1543346;77;1971;-59
2023/03/12 10:07:57;;;;;;;;;;;19.90;45.20;;;;;;1541616;77;784;-59
2023/03/12 10:10:07;;;;;;;;;;;19.90;45.20;;;;;;1525154;77;778;-60
2023/03/12 10:12:10;;;;;;;;;;;19.90;45.20;;;;;;1540740;77;1111;-60
2023/03/12 10:14:30;;;;;;;;;;;19.80;45.10;;;;;;1531665;77;749;-60
2023/03/12 10:16:34;;;;;;;;;;;19.90;45.20;;;;;;1534231;77;1431;-61
2023/03/12 10:18:49;;;;;;;;;;;19.90;45.20;;;;;;1533415;77;1915;-60
2023/03/12 10:20:52;;;;;;;;;;;19.90;45.20;;;;;;1546048;77;605;-59
2023/03/12 10:23:02;;;;;;;;;;;19.90;45.20;;;;;;1546246;77;1087;-59
2023/03/12 10:25:05;;;;;;;;;;;19.90;45.20;;;;;;1535939;77;1394;-60
2023/03/12 10:27:16;;;;;;;;;;;19.90;45.20;;;;;;1532884;77;949;-61
2023/03/12 10:29:22;;;;;;;;;;;19.90;45.20;;;;;;1542586;77;760;-59
2023/03/12 10:31:26;;;;;;;;;;;19.90;45.20;;;;;;1538096;77;1474;-60
2023/03/12 10:33:41;;;;;;;;;;;19.90;45.20;;;;;;1537876;77;680;-61
2023/03/12 10:35:43;;;;;;;;;;;19.90;45.20;;;;;;1541476;77;750;-62
2023/03/12 10:37:47;;;;;;;;;;;19.90;45.20;;;;;;1535570;77;728;-59
2023/03/12 10:39:49;;;;;;;;;;;19.90;45.20;;;;;;1526198;77;1939;-59
2023/03/12 10:41:51;;;;;;;;;;;19.80;45.00;;;;;;1541150;77;1144;-60
2023/03/12 10:43:53;;;;;;;;;;;19.90;45.20;;;;;;1545625;77;1525;-58
2023/03/12 10:46:00;;;;;;;;;;;19.90;45.20;;;;;;1534076;77;789;-60
2023/03/12 10:48:02;;;;;;;;;;;19.80;45.10;;;;;;1520348;77;758;-60
2023/03/12 10:50:15;;;;;;;;;;;19.90;45.20;;;;;;1545308;77;602;-59
2023/03/12 10:52:18;;;;;;;;;;;19.90;45.20;;;;;;1540625;77;1206;-62
2023/03/12 10:54:24;;;;;;;;;;;19.90;45.20;;;;;;1538229;77;783;-60
2023/03/12 10:56:26;;;;;;;;;;;19.80;45.10;;;;;;1544495;76;957;-59
2023/03/12 10:58:29;;;;;;;;;;;19.90;45.20;;;;;;1546361;77;1542;-60
2023/03/12 11:00:31;;;;;;;;;;;19.90;45.20;;;;;;1543111;77;1934;-59
2023/03/12 11:02:34;;;;;;;;;;;19.90;45.10;;;;;;1538505;77;1114;-59
2023/03/12 11:04:36;;;;;;;;;;;19.90;45.20;;;;;;1545593;77;733;-59
2023/03/12 11:06:39;;;;;;;;;;;19.80;45.10;;;;;;1545803;77;839;-60
2023/03/12 11:08:41;;;;;;;;;;;19.90;45.20;;;;;;1540271;77;759;-61
2023/03/12 11:10:44;;;;;;;;;;;19.80;45.00;;;;;;1531821;77;899;-59
2023/03/12 11:12:53;;;;;;;;;;;19.90;45.10;;;;;;1544626;77;1521;-59
2023/03/12 11:14:55;;;;;;;;;;;19.90;45.20;;;;;;1535798;77;730;-60
2023/03/12 11:16:56;;;;;;;;;;;19.90;45.20;;;;;;1545970;77;707;-59
2023/03/12 11:19:00;;;;;;;;;;;19.90;45.20;;;;;;1545602;77;1931;-60
2023/03/12 11:21:03;;;;;;;;;;;19.90;45.20;;;;;;1544397;77;724;-60
2023/03/12 11:23:10;;;;;;;;;;;19.90;45.20;;;;;;1536526;77;1273;-59
2023/03/12 11:25:12;;;;;;;;;;;19.90;45.20;;;;;;1528497;77;1652;-59
2023/03/12 11:27:22;;;;;;;;;;;19.90;45.20;;;;;;1538386;77;1909;-61
2023/03/12 11:29:31;;;;;;;;;;;19.80;45.10;;;;;;1532056;77;953;-59
2023/03/12 11:31:35;;;;;;;;;;;19.80;45.20;;;;;;1538947;77;1149;-61
2023/03/12 11:33:37;;;;;;;;;;;19.90;45.20;;;;;;1528802;77;744;-60
2023/03/12 11:35:40;;;;;;;;;;;19.80;45.10;;;;;;1537912;77;727;-60
2023/03/12 11:37:50;;;;;;;;;;;19.90;45.20;;;;;;1546282;77;679;-59
2023/03/12 11:39:56;;;;;;;;;;;19.90;45.20;;;;;;1528112;77;1945;-59
2023/03/12 11:42:03;;;;;;;;;;;19.90;45.20;;;;;;1543099;77;1874;-59
2023/03/12 11:44:23;;;;;;;;;;;19.80;45.10;;;;;;1532821;77;1380;-59
2023/03/12 11:46:38;;;;;;;;;;;19.90;45.20;;;;;;1539348;77;690;-60
2023/03/12 11:48:42;;;;;;;;;;;19.80;45.20;;;;;;1531041;77;1869;-60
2023/03/12 11:50:48;;;;;;;;;;;19.90;45.30;;;;;;1546710;77;2103;-59
2023/03/12 11:53:04;;;;;;;;;;;19.80;45.20;;;;;;1517209;77;1649;-59
2023/03/12 11:55:07;;;;;;;;;;;19.80;45.20;;;;;;1541611;77;2022;-59
2023/03/12 11:57:17;;;;;;;;;;;19.90;45.30;;;;;;1537555;77;721;-61
2023/03/12 11:59:23;;;;;;;;;;;19.80;45.20;;;;;;1532062;77;1951;-59
2023/03/12 12:01:39;;;;;;;;;;;19.80;45.20;;;;;;1537241;77;1909;-58
2023/03/12 12:03:58;;;;;;;;;;;19.90;45.30;;;;;;1524088;77;797;-59
2023/03/12 12:06:07;;;;;;;;;;;19.80;45.20;;;;;;1535704;77;1867;-59
2023/03/12 12:08:22;;;;;;;;;;;19.80;45.30;;;;;;1537240;77;1542;-62
2023/03/12 12:10:26;;;;;;;;;;;19.80;45.30;;;;;;1523429;77;760;-60
2023/03/12 12:12:47;;;;;;;;;;;19.70;45.30;;;;;;1523343;77;1337;-59
2023/03/12 12:15:09;;;;;;;;;;;19.80;45.30;;;;;;1543903;77;717;-61
2023/03/12 12:17:15;;;;;;;;;;;19.90;45.40;;;;;;1530500;77;1695;-62